createdAt,value
2018-10-16T00:01:53.829Z,9.37
2018-10-16T00:04:22.397Z,8.63
2018-10-16T00:06:50.769Z,9.63
2018-10-16T00:09:19.131Z,8.67
2018-10-16T00:11:59.530Z,9.17
2018-10-16T00:14:27.909Z,9.10
2018-10-16T00:16:56.375Z,8.77
2018-10-16T00:19:24.948Z,9.70
2018-10-16T00:21:53.432Z,9.73
2018-10-16T00:24:22.123Z,10.30
2018-10-16T00:26:50.504Z,9.30
2018-10-16T00:29:18.876Z,8.50
2018-10-16T00:31:47.228Z,9.37
2018-10-16T00:34:15.563Z,10.17
2018-10-16T00:36:43.908Z,9.60
2018-10-16T00:39:13.624Z,9.97
2018-10-16T00:41:42.415Z,9.70
2018-10-16T00:44:12.020Z,9.30
2018-10-16T00:46:41.736Z,9.53
2018-10-16T00:49:10.080Z,9.43
2018-10-16T00:51:39.722Z,9.70
2018-10-16T00:54:08.200Z,8.87
2018-10-16T00:56:36.785Z,10.00
2018-10-16T00:59:05.186Z,9.20
2018-10-16T01:01:34.515Z,9.83
2018-10-16T01:04:04.163Z,9.37
2018-10-16T01:06:33.729Z,10.27
2018-10-16T01:09:02.108Z,9.13
2018-10-16T01:11:30.484Z,9.53
2018-10-16T01:13:59.454Z,9.33
2018-10-16T01:16:27.857Z,10.27
2018-10-16T01:18:56.822Z,9.97
2018-10-16T01:21:25.198Z,9.50
2018-10-16T01:23:53.584Z,9.53
2018-10-16T01:26:21.966Z,9.60
2018-10-16T01:28:50.336Z,10.17
2018-10-16T01:31:18.698Z,9.83
2018-10-16T01:33:47.056Z,9.33
2018-10-16T01:36:15.428Z,10.23
2018-10-16T01:38:43.793Z,9.57
2018-10-16T01:41:12.161Z,9.80
2018-10-16T01:43:40.791Z,9.20
2018-10-16T01:46:09.788Z,10.13
2018-10-16T01:48:38.675Z,9.70
2018-10-16T01:51:07.468Z,10.20
2018-10-16T01:53:35.848Z,10.10
2018-10-16T01:56:04.228Z,9.57
2018-10-16T01:58:32.612Z,10.27
2018-10-16T02:01:00.970Z,10.20
2018-10-16T02:03:29.371Z,9.80
2018-10-16T02:05:57.752Z,9.00
2018-10-16T02:08:26.176Z,9.47
2018-10-16T02:10:54.558Z,9.57
2018-10-16T02:13:22.934Z,9.07
2018-10-16T02:15:51.317Z,9.53
2018-10-16T02:18:19.697Z,9.20
2018-10-16T02:20:48.074Z,9.60
2018-10-16T02:23:16.461Z,9.30
2018-10-16T02:25:44.827Z,8.90
2018-10-16T02:28:13.213Z,9.77
2018-10-16T02:30:41.563Z,9.57
2018-10-16T02:33:10.562Z,9.77
2018-10-16T02:35:38.932Z,9.07
2018-10-16T02:38:07.344Z,10.40
2018-10-16T02:40:35.719Z,9.07
2018-10-16T02:43:04.098Z,8.53
2018-10-16T02:45:32.477Z,9.10
2018-10-16T02:48:00.853Z,9.53
2018-10-16T02:50:29.236Z,9.47
2018-10-16T02:52:57.614Z,9.00
2018-10-16T02:55:26.024Z,8.40
2018-10-16T02:57:54.476Z,9.23
2018-10-16T03:00:22.877Z,10.23
2018-10-16T03:02:51.252Z,9.93
2018-10-16T03:05:19.616Z,9.47
2018-10-16T03:07:48.001Z,8.90
2018-10-16T03:10:16.393Z,9.23
2018-10-16T03:12:45.060Z,9.30
2018-10-16T03:15:14.095Z,9.67
2018-10-16T03:17:42.481Z,8.33
2018-10-16T03:20:11.874Z,9.20
2018-10-16T03:22:41.720Z,9.13
2018-10-16T03:25:11.879Z,9.60
2018-10-16T03:27:40.704Z,10.40
2018-10-16T03:30:10.827Z,10.20
2018-10-16T03:32:39.928Z,8.93
2018-10-16T03:35:09.731Z,9.13
2018-10-16T03:37:39.045Z,9.67
2018-10-16T03:40:07.721Z,9.17
2018-10-16T03:42:36.088Z,9.43
2018-10-16T03:45:04.891Z,9.17
2018-10-16T03:47:33.333Z,9.73
2018-10-16T03:50:01.657Z,9.73
2018-10-16T03:52:30.054Z,9.80
2018-10-16T03:54:58.463Z,9.60
2018-10-16T03:57:27.028Z,9.43
2018-10-16T03:59:55.377Z,9.53
2018-10-16T04:02:23.879Z,10.00
2018-10-16T04:04:52.433Z,10.07
2018-10-16T04:07:20.798Z,9.83
2018-10-16T04:09:49.168Z,8.27
2018-10-16T04:12:17.580Z,10.37
2018-10-16T04:14:45.952Z,8.97
2018-10-16T04:17:14.284Z,10.03
2018-10-16T04:19:43.118Z,11.03
2018-10-16T04:22:11.493Z,10.63
2018-10-16T04:24:39.896Z,8.93
2018-10-16T04:27:08.227Z,9.60
2018-10-16T04:29:38.575Z,9.83
2018-10-16T04:32:06.960Z,9.73
2018-10-16T04:34:35.295Z,9.60
2018-10-16T04:37:03.692Z,9.93
2018-10-16T04:39:32.096Z,9.60
2018-10-16T04:42:01.541Z,10.30
2018-10-16T04:44:29.972Z,11.17
2018-10-16T04:46:58.462Z,10.10
2018-10-16T04:49:26.887Z,9.60
2018-10-16T04:51:55.377Z,10.43
2018-10-16T04:54:23.799Z,9.67
2018-10-16T04:56:52.240Z,9.57
2018-10-16T04:59:20.632Z,9.77
2018-10-16T05:01:49.808Z,9.60
2018-10-16T05:04:18.420Z,9.73
2018-10-16T05:06:46.843Z,9.10
2018-10-16T05:09:15.873Z,11.00
2018-10-16T05:11:47.244Z,9.83
2018-10-16T05:14:15.631Z,10.27
2018-10-16T05:16:44.035Z,9.50
2018-10-16T05:19:15.034Z,10.87
2018-10-16T05:21:43.417Z,10.90
2018-10-16T05:24:12.234Z,11.33
2018-10-16T05:26:42.002Z,9.90
2018-10-16T05:29:11.073Z,10.67
2018-10-16T05:31:40.333Z,11.03
2018-10-16T05:34:09.480Z,11.50
2018-10-16T05:36:38.960Z,11.17
2018-10-16T05:39:10.838Z,10.00
2018-10-16T05:41:40.840Z,11.67
2018-10-16T05:44:09.536Z,11.60
2018-10-16T05:46:37.959Z,11.40
2018-10-16T05:49:07.090Z,12.13
2018-10-16T05:51:35.544Z,10.57
2018-10-16T05:54:04.143Z,11.33
2018-10-16T05:56:32.595Z,11.17
2018-10-16T05:59:00.959Z,12.97
2018-10-16T06:01:29.337Z,12.37
2018-10-16T06:03:57.772Z,12.57
2018-10-16T06:06:26.228Z,12.03
2018-10-16T06:08:54.713Z,11.73
2018-10-16T06:11:23.159Z,11.30
2018-10-16T06:13:51.593Z,12.63
2018-10-16T06:16:20.032Z,16.33
2018-10-16T06:18:48.470Z,11.97
2018-10-16T06:21:16.906Z,12.40
2018-10-16T06:23:45.984Z,12.60
2018-10-16T06:26:14.443Z,12.37
2018-10-16T06:28:43.420Z,12.77
2018-10-16T06:51:25.636Z,11.17
2018-10-16T06:53:54.071Z,9.97
2018-10-16T06:56:22.504Z,11.07
2018-10-16T06:58:50.937Z,11.97
2018-10-16T07:01:19.927Z,10.07
2018-10-16T07:03:48.366Z,11.50
2018-10-16T07:06:16.845Z,10.73
2018-10-16T07:08:45.722Z,11.53
2018-10-16T07:11:14.151Z,11.40
2018-10-16T07:13:42.777Z,11.53
2018-10-16T07:16:11.199Z,11.47
2018-10-16T07:18:40.276Z,11.63
2018-10-16T07:21:08.754Z,11.07
2018-10-16T07:23:37.251Z,10.93
2018-10-16T07:26:05.988Z,10.33
2018-10-16T07:28:34.485Z,12.30
2018-10-16T07:31:02.891Z,10.67
2018-10-16T07:33:31.361Z,11.20
2018-10-16T07:35:59.826Z,11.70
2018-10-16T07:38:28.223Z,11.70
2018-10-16T07:40:56.695Z,11.93
2018-10-16T07:43:25.131Z,12.93
2018-10-16T07:45:53.527Z,12.33
2018-10-16T07:48:21.945Z,11.40
2018-10-16T07:50:50.844Z,11.43
2018-10-16T07:53:19.497Z,11.87
2018-10-16T07:55:47.935Z,11.17
2018-10-16T07:58:16.359Z,12.47
2018-10-16T08:00:46.561Z,12.77
2018-10-16T08:03:14.963Z,12.07
2018-10-16T08:05:43.377Z,11.67
2018-10-16T08:08:11.968Z,12.23
2018-10-16T08:10:40.479Z,11.80
2018-10-16T08:13:09.347Z,11.47
2018-10-16T08:15:38.532Z,11.07
2018-10-16T08:18:08.370Z,12.53
2018-10-16T08:20:37.352Z,11.33
2018-10-16T08:23:06.238Z,11.23
2018-10-16T08:25:34.739Z,10.80
2018-10-16T08:28:03.400Z,11.53
2018-10-16T08:30:31.957Z,11.00
2018-10-16T08:33:00.309Z,11.57
2018-10-16T08:35:28.746Z,11.47
2018-10-16T08:39:05.067Z,10.57
2018-10-16T08:42:18.849Z,11.37
2018-10-16T08:45:56.140Z,10.53
2018-10-16T08:48:35.820Z,10.37
2018-10-16T08:51:15.602Z,11.70
2018-10-16T08:53:44.010Z,11.10
2018-10-16T08:56:12.399Z,10.53
2018-10-16T08:58:40.829Z,10.60
2018-10-16T09:01:09.230Z,10.67
2018-10-16T09:03:37.596Z,10.80
2018-10-16T09:06:09.934Z,11.13
2018-10-16T09:08:39.812Z,10.43
2018-10-16T09:11:08.263Z,11.03
2018-10-16T09:13:36.811Z,11.53
2018-10-16T09:16:05.612Z,10.87
2018-10-16T09:18:34.911Z,10.50
2018-10-16T09:21:03.913Z,11.40
2018-10-16T09:23:32.997Z,11.30
2018-10-16T09:26:01.643Z,11.00
2018-10-16T09:28:31.113Z,11.30
2018-10-16T09:31:02.419Z,10.57
2018-10-16T09:33:32.355Z,11.03
2018-10-16T09:36:01.352Z,10.70
2018-10-16T09:38:31.025Z,11.50
2018-10-16T09:40:59.490Z,10.73
2018-10-16T09:43:27.947Z,11.03
2018-10-16T09:45:57.145Z,10.37
2018-10-16T09:48:25.566Z,10.57
2018-10-16T09:50:54.172Z,10.60
2018-10-16T09:53:23.513Z,9.83
2018-10-16T09:55:52.033Z,10.47
2018-10-16T09:58:24.110Z,10.00
2018-10-16T10:00:58.277Z,10.13
2018-10-16T10:03:30.970Z,10.47
2018-10-16T10:06:00.226Z,9.70
2018-10-16T10:08:28.748Z,10.17
2018-10-16T10:10:57.830Z,9.53
2018-10-16T10:13:26.726Z,9.70
2018-10-16T10:15:55.141Z,7.60
2018-10-16T10:18:24.053Z,7.37
2018-10-16T10:20:52.503Z,7.75
2018-10-16T10:23:21.000Z,6.50
2018-10-16T10:25:49.412Z,7.42
2018-10-16T10:28:18.027Z,7.55
2018-10-16T10:30:46.412Z,7.57
2018-10-16T10:33:15.553Z,8.50
2018-10-16T10:35:43.972Z,8.77
2018-10-16T10:38:12.383Z,9.20
2018-10-16T10:40:40.951Z,9.83
2018-10-16T10:43:10.687Z,9.03
2018-10-16T10:45:40.683Z,9.70
2018-10-16T10:48:10.352Z,9.70
2018-10-16T10:50:39.708Z,9.73
2018-10-16T10:53:08.789Z,9.47
2018-10-16T10:55:38.057Z,8.30
2018-10-16T10:58:06.974Z,9.87
2018-10-16T11:00:35.649Z,10.90
2018-10-16T11:03:04.782Z,9.47
2018-10-16T11:05:35.599Z,8.87
2018-10-16T11:08:04.109Z,10.37
2018-10-16T11:10:33.248Z,9.03
2018-10-16T11:13:01.783Z,8.70
2018-10-16T11:15:30.266Z,9.80
2018-10-16T11:17:58.867Z,9.20
2018-10-16T11:20:27.858Z,9.30
2018-10-16T11:22:56.479Z,9.30
2018-10-16T11:25:26.505Z,9.93
2018-10-16T11:27:54.931Z,8.83
2018-10-16T11:30:23.645Z,8.80
2018-10-16T11:32:52.291Z,9.13
2018-10-16T11:35:20.798Z,8.80
2018-10-16T11:37:49.252Z,9.03
2018-10-16T11:40:18.455Z,9.30
2018-10-16T11:42:47.730Z,9.00
2018-10-16T11:45:16.244Z,8.93
2018-10-16T11:47:44.904Z,9.07
2018-10-16T11:50:13.580Z,9.23
2018-10-16T11:52:42.380Z,9.40
2018-10-16T11:55:11.284Z,9.20
2018-10-16T11:57:40.421Z,9.10
2018-10-16T12:00:11.615Z,8.23
2018-10-16T12:02:40.186Z,8.63
2018-10-16T12:05:08.634Z,8.50
2018-10-16T12:07:37.212Z,8.73
2018-10-16T12:10:06.203Z,8.93
2018-10-16T12:12:37.201Z,9.23
2018-10-16T12:15:06.381Z,9.13
2018-10-16T12:17:41.840Z,8.13
2018-10-16T12:20:16.922Z,9.30
2018-10-16T12:22:45.266Z,8.97
2018-10-16T12:25:13.673Z,9.00
2018-10-16T12:27:41.995Z,8.83
2018-10-16T12:30:10.639Z,7.97
2018-10-16T12:32:38.999Z,8.10
2018-10-16T12:35:07.707Z,8.47
2018-10-16T12:37:36.086Z,9.13
2018-10-16T12:40:05.644Z,9.23
2018-10-16T12:42:34.033Z,9.63
2018-10-16T12:45:02.402Z,9.33
2018-10-16T12:47:30.736Z,9.47
2018-10-16T12:49:59.109Z,9.33
2018-10-16T12:52:27.479Z,9.10
2018-10-16T12:54:55.814Z,9.23
2018-10-16T12:57:24.237Z,9.77
2018-10-16T12:59:52.591Z,9.33
2018-10-16T13:02:20.881Z,8.93
2018-10-16T13:04:49.200Z,8.90
2018-10-16T13:07:48.362Z,9.33
2018-10-16T13:10:18.005Z,9.20
2018-10-16T13:12:46.884Z,9.53
2018-10-16T13:15:16.090Z,9.53
2018-10-16T13:17:44.994Z,9.10
2018-10-16T13:20:15.257Z,9.13
2018-10-16T13:22:45.099Z,8.77
2018-10-16T13:25:14.703Z,9.20
2018-10-16T13:27:43.203Z,8.57
2018-10-16T13:30:13.628Z,9.33
2018-10-16T13:32:42.020Z,8.33
2018-10-16T13:35:12.369Z,9.00
2018-10-16T13:37:40.837Z,9.10
2018-10-16T13:40:10.171Z,9.63
2018-10-16T13:42:38.516Z,9.10
2018-10-16T13:45:08.045Z,8.07
2018-10-16T13:47:36.413Z,9.07
2018-10-16T13:50:06.103Z,8.60
2018-10-16T13:52:34.427Z,8.27
2018-10-16T13:55:02.751Z,8.63
2018-10-16T13:57:31.087Z,8.17
2018-10-16T13:59:59.402Z,8.97
2018-10-16T14:02:27.740Z,9.43
2018-10-16T14:04:56.149Z,8.90
2018-10-16T14:07:24.440Z,8.67
2018-10-16T14:09:52.835Z,8.90
2018-10-16T14:12:21.170Z,9.27
2018-10-16T14:14:49.513Z,8.90
2018-10-16T14:17:17.837Z,8.27
2018-10-16T14:19:46.159Z,8.93
2018-10-16T14:22:14.522Z,8.97
2018-10-16T14:24:42.900Z,8.37
2018-10-16T14:27:11.246Z,9.20
2018-10-16T14:29:39.565Z,8.20
2018-10-16T14:32:07.987Z,8.47
2018-10-16T14:34:36.459Z,8.70
2018-10-16T14:37:04.644Z,9.37
2018-10-16T14:39:32.979Z,8.73
2018-10-16T14:42:01.344Z,8.77
2018-10-16T14:44:29.676Z,8.40
2018-10-16T14:46:58.029Z,8.27
2018-10-16T14:49:26.400Z,8.00
2018-10-16T14:51:54.794Z,8.67
2018-10-16T14:54:23.112Z,8.70
2018-10-16T14:56:51.438Z,7.93
2018-10-16T14:59:19.777Z,7.97
2018-10-16T15:01:48.105Z,8.17
2018-10-16T15:04:16.460Z,9.13
2018-10-16T15:06:44.801Z,8.23
2018-10-16T15:09:13.122Z,8.57
2018-10-16T15:11:41.485Z,8.60
2018-10-16T15:14:09.883Z,8.43
2018-10-16T15:16:38.245Z,8.90
2018-10-16T15:19:06.502Z,8.57
2018-10-16T15:21:34.841Z,8.77
2018-10-16T15:24:03.231Z,8.90
2018-10-16T15:26:31.533Z,8.43
2018-10-16T15:28:59.858Z,8.63
2018-10-16T15:31:28.214Z,7.77
2018-10-16T15:33:56.608Z,8.27
2018-10-16T15:36:24.900Z,8.13
2018-10-16T15:38:53.258Z,8.80
2018-10-16T15:41:21.610Z,8.90
2018-10-16T15:43:49.931Z,8.63
2018-10-16T15:46:18.262Z,8.70
2018-10-16T15:48:46.637Z,9.30
2018-10-16T15:51:14.953Z,8.47
2018-10-16T15:53:43.324Z,8.90
2018-10-16T15:56:11.752Z,9.57
2018-10-16T15:58:40.051Z,9.10
2018-10-16T16:01:08.390Z,7.47
2018-10-16T16:03:36.711Z,9.57
2018-10-16T16:06:05.555Z,8.83
2018-10-16T16:08:33.892Z,9.03
2018-10-16T16:11:02.221Z,9.17
2018-10-16T16:13:30.544Z,9.23
2018-10-16T16:15:58.922Z,8.47
2018-10-16T16:18:27.255Z,8.73
2018-10-16T16:20:55.570Z,9.57
2018-10-16T16:23:23.887Z,9.10
2018-10-16T16:25:52.284Z,9.17
2018-10-16T16:28:20.613Z,10.27
2018-10-16T16:30:48.948Z,8.73
2018-10-16T16:33:17.325Z,10.03
2018-10-16T16:35:45.681Z,9.57
2018-10-16T16:38:14.060Z,9.07
2018-10-16T16:40:42.351Z,9.93
2018-10-16T16:43:10.668Z,8.73
2018-10-16T16:45:38.989Z,9.63
2018-10-16T16:48:07.326Z,10.07
2018-10-16T16:50:35.646Z,8.60
2018-10-16T16:53:04.037Z,10.13
2018-10-16T16:55:32.375Z,8.40
2018-10-16T16:58:00.722Z,10.10
2018-10-16T17:00:29.053Z,9.33
2018-10-16T17:02:57.385Z,10.07
2018-10-16T17:05:26.055Z,9.80
2018-10-16T17:07:54.408Z,11.40
2018-10-16T17:10:22.764Z,9.97
2018-10-16T17:12:51.086Z,8.97
2018-10-16T17:15:19.440Z,9.77
2018-10-16T17:17:47.851Z,10.80
2018-10-16T17:20:16.982Z,10.83
2018-10-16T17:22:45.350Z,10.23
2018-10-16T17:25:14.984Z,9.97
2018-10-16T17:27:43.980Z,11.23
2018-10-16T17:30:14.316Z,10.73
2018-10-16T17:32:43.313Z,10.63
2018-10-16T17:35:12.396Z,10.87
2018-10-16T17:37:41.394Z,10.70
2018-10-16T17:40:12.126Z,11.20
2018-10-16T17:42:40.591Z,10.60
2018-10-16T17:45:10.996Z,10.17
2018-10-16T17:47:39.324Z,11.83
2018-10-16T17:50:10.805Z,11.33
2018-10-16T17:52:39.344Z,11.23
2018-10-16T17:55:08.337Z,10.97
2018-10-16T17:57:37.149Z,11.73
2018-10-16T18:00:06.883Z,10.50
2018-10-16T18:02:35.223Z,10.30
2018-10-16T18:05:03.555Z,11.63
2018-10-16T18:07:31.945Z,13.00
2018-10-16T18:10:00.280Z,14.53
2018-10-16T18:12:28.635Z,16.57
2018-10-16T18:14:56.991Z,13.70
2018-10-16T18:17:25.492Z,13.40
2018-10-16T18:19:53.840Z,13.17
2018-10-16T18:22:22.167Z,12.87
2018-10-16T18:24:50.505Z,13.70
2018-10-16T18:27:18.820Z,11.37
2018-10-16T18:29:47.206Z,12.80
2018-10-16T18:32:15.503Z,11.87
2018-10-16T18:34:43.849Z,12.50
2018-10-16T18:37:12.216Z,11.80
2018-10-16T18:39:40.634Z,14.13
2018-10-16T18:42:08.911Z,12.07
2018-10-16T18:44:37.234Z,14.27
2018-10-16T18:47:05.576Z,14.40
2018-10-16T18:49:33.920Z,12.87
2018-10-16T18:52:02.291Z,13.23
2018-10-16T18:54:30.668Z,12.83
2018-10-16T18:56:59.079Z,12.90
2018-10-16T18:59:27.373Z,13.40
2018-10-16T19:01:55.698Z,13.67
2018-10-16T19:04:24.057Z,14.07
2018-10-16T19:06:52.413Z,13.73
2018-10-16T19:09:20.744Z,12.57
2018-10-16T19:11:49.092Z,11.70
2018-10-16T19:14:17.425Z,13.43
2018-10-16T19:16:45.771Z,10.77
2018-10-16T19:19:14.481Z,12.63
2018-10-16T19:21:42.829Z,13.27
2018-10-16T19:24:11.164Z,12.67
2018-10-16T19:26:39.709Z,12.67
2018-10-16T19:29:08.058Z,12.43
2018-10-16T19:31:36.410Z,12.80
2018-10-16T19:34:04.743Z,13.80
2018-10-16T19:36:33.150Z,13.33
2018-10-16T19:39:01.501Z,13.57
2018-10-16T19:41:29.853Z,13.90
2018-10-16T19:43:58.160Z,13.70
2018-10-16T19:46:26.866Z,12.57
2018-10-16T19:48:55.205Z,12.97
2018-10-16T19:51:23.538Z,14.27
2018-10-16T19:53:51.874Z,13.43
2018-10-16T19:56:20.225Z,13.97
2018-10-16T19:58:48.563Z,15.37
2018-10-16T20:01:16.884Z,14.40
2018-10-16T20:03:45.187Z,14.57
2018-10-16T20:06:13.536Z,13.47
2018-10-16T20:08:41.947Z,14.70
2018-10-16T20:11:10.409Z,14.10
2018-10-16T20:13:38.747Z,13.03
2018-10-16T20:16:07.088Z,14.20
2018-10-16T20:18:35.477Z,13.70
2018-10-16T20:21:03.963Z,13.20
2018-10-16T20:23:32.316Z,14.13
2018-10-16T20:26:00.685Z,14.30
2018-10-16T20:28:29.053Z,14.77
2018-10-16T20:30:57.445Z,14.57
2018-10-16T20:33:25.834Z,14.10
2018-10-16T20:35:54.190Z,15.00
2018-10-16T20:38:22.538Z,14.07
2018-10-16T20:40:50.973Z,14.63
2018-10-16T20:43:19.317Z,15.23
2018-10-16T20:45:47.662Z,14.67
2018-10-16T20:48:15.980Z,13.93
2018-10-16T20:50:44.288Z,14.97
2018-10-16T20:53:12.660Z,14.27
2018-10-16T20:55:41.148Z,15.20
2018-10-16T20:58:09.499Z,15.33
2018-10-16T21:00:38.926Z,15.67
2018-10-16T21:03:07.266Z,15.93
2018-10-16T21:05:35.736Z,15.40
2018-10-16T21:08:03.972Z,15.30
2018-10-16T21:10:32.321Z,15.83
2018-10-16T21:13:00.656Z,15.43
2018-10-16T21:15:29.079Z,17.37
2018-10-16T21:17:57.398Z,15.30
2018-10-16T21:20:25.733Z,16.30
2018-10-16T21:22:54.087Z,15.33
2018-10-16T21:25:22.411Z,14.03
2018-10-16T21:27:50.746Z,14.73
2018-10-16T21:30:19.075Z,14.10
2018-10-16T21:32:47.419Z,16.03
2018-10-16T21:35:15.771Z,14.80
2018-10-16T21:37:44.103Z,15.87
2018-10-16T21:40:12.549Z,15.27
2018-10-16T21:42:40.878Z,15.13
2018-10-16T21:45:09.227Z,15.30
2018-10-16T21:47:37.560Z,14.63
2018-10-16T21:50:05.894Z,14.87
2018-10-16T21:52:34.222Z,13.43
2018-10-16T21:55:02.605Z,14.43
2018-10-16T21:57:30.940Z,14.33
2018-10-16T21:59:59.307Z,14.43
2018-10-16T22:02:32.960Z,14.47
2018-10-16T22:05:01.402Z,14.17
2018-10-16T22:07:29.800Z,14.03
2018-10-16T22:09:58.160Z,14.73
2018-10-16T22:12:26.504Z,13.93
2018-10-16T22:14:54.989Z,13.70
2018-10-16T22:17:23.414Z,13.40
2018-10-16T22:19:51.744Z,14.70
2018-10-16T22:22:20.081Z,14.80
2018-10-16T22:24:48.434Z,13.83
2018-10-16T22:27:16.779Z,14.23
2018-10-16T22:29:45.092Z,14.53
2018-10-16T22:32:13.434Z,14.17
2018-10-16T22:34:41.766Z,14.10
2018-10-16T22:37:10.213Z,14.00
2018-10-16T22:39:38.471Z,14.07
2018-10-16T22:42:06.845Z,13.60
2018-10-16T22:44:35.206Z,13.03
2018-10-16T22:47:03.593Z,13.90
2018-10-16T22:49:31.885Z,13.30
2018-10-16T22:52:00.230Z,14.37
2018-10-16T22:54:28.567Z,14.33
2018-10-16T22:56:59.863Z,14.07
2018-10-16T22:59:28.199Z,13.23
2018-10-16T23:01:56.516Z,14.37
2018-10-16T23:04:24.849Z,13.90
2018-10-16T23:06:53.231Z,13.03
2018-10-16T23:09:21.516Z,14.50
2018-10-16T23:11:49.843Z,13.70
2018-10-16T23:14:18.162Z,13.10
2018-10-16T23:16:46.515Z,13.23
2018-10-16T23:19:14.983Z,12.60
2018-10-16T23:21:43.296Z,13.30
2018-10-16T23:24:11.652Z,13.20
2018-10-16T23:26:39.996Z,13.57
2018-10-16T23:29:08.380Z,13.33
2018-10-16T23:31:36.686Z,14.57
2018-10-16T23:34:05.715Z,14.27
2018-10-16T23:36:34.054Z,13.33
2018-10-16T23:39:02.372Z,12.37
2018-10-16T23:41:30.739Z,13.80
2018-10-16T23:43:59.093Z,13.93
2018-10-16T23:46:27.633Z,12.77
2018-10-16T23:48:55.967Z,13.60
2018-10-16T23:51:24.306Z,13.07
2018-10-16T23:53:52.630Z,13.07
2018-10-16T23:56:20.956Z,12.23
2018-10-16T23:58:49.269Z,13.27
